N6LC KBOS-KDCA
Flight info
| Callsign | N6LC |
|---|---|
| Flight time | 1h 27m |
| Altitude | 40000 |
| Route | SSOXS7 SSOXS Q167 ZIZZI KNUKK ATR LAFLN DEALE3 |
| Aircraft | PC24/L-SDFGRWY/S |
Departure
| Time | 2026-05-08 00:05 |
|---|---|
| Airport | Boston Logan International Airport (KBOS) |
Arrival
| Time | 2026-05-08 01:32 |
|---|---|
| Airport | Ronald Reagan Washington National Airport (KDCA) |
| Time | Latitude | Longitude | Altitude | Speed | Heading |
|---|---|---|---|---|---|
| 2026-05-07 23:40 | 42.37330 | -71.02066 | 21 ft | 0 kts | 314° |
| 2026-05-07 23:54 | 42.37333 | -71.02070 | 21 ft | 5 kts | 320° |
| 2026-05-07 23:54 | 42.37373 | -71.02057 | 22 ft | 6 kts | 44° |
| 2026-05-07 23:54 | 42.37404 | -71.02019 | 21 ft | 7 kts | 51° |
| 2026-05-07 23:55 | 42.37383 | -71.01941 | 23 ft | 12 kts | 136° |
| 2026-05-07 23:55 | 42.37325 | -71.01864 | 23 ft | 12 kts | 135° |
| 2026-05-07 23:55 | 42.37257 | -71.01773 | 21 ft | 16 kts | 136° |
| 2026-05-07 23:55 | 42.37180 | -71.01666 | 21 ft | 16 kts | 134° |
| 2026-05-07 23:56 | 42.37096 | -71.01556 | 21 ft | 17 kts | 137° |
| 2026-05-07 23:56 | 42.37007 | -71.01437 | 21 ft | 18 kts | 134° |
| 2026-05-07 23:56 | 42.36917 | -71.01317 | 22 ft | 18 kts | 135° |
| 2026-05-07 23:56 | 42.36829 | -71.01199 | 21 ft | 17 kts | 135° |
| 2026-05-07 23:57 | 42.36727 | -71.01146 | 22 ft | 16 kts | 194° |
| 2026-05-07 23:57 | 42.36626 | -71.01194 | 22 ft | 15 kts | 200° |
| 2026-05-07 23:57 | 42.36534 | -71.01237 | 22 ft | 13 kts | 200° |
| 2026-05-07 23:57 | 42.36451 | -71.01279 | 21 ft | 12 kts | 200° |
| 2026-05-07 23:58 | 42.36369 | -71.01317 | 22 ft | 11 kts | 199° |
| 2026-05-07 23:58 | 42.36317 | -71.01276 | 22 ft | 9 kts | 121° |
| 2026-05-07 23:58 | 42.36283 | -71.01201 | 21 ft | 10 kts | 122° |
| 2026-05-07 23:58 | 42.36243 | -71.01095 | 22 ft | 14 kts | 114° |
| 2026-05-07 23:59 | 42.36204 | -71.00978 | 21 ft | 14 kts | 114° |
| 2026-05-07 23:59 | 42.36164 | -71.00858 | 21 ft | 14 kts | 114° |
| 2026-05-07 23:59 | 42.36124 | -71.00734 | 22 ft | 14 kts | 110° |
| 2026-05-07 23:59 | 42.36089 | -71.00595 | 23 ft | 17 kts | 109° |
| 2026-05-08 00:00 | 42.36052 | -71.00449 | 22 ft | 16 kts | 109° |
| 2026-05-08 00:00 | 42.36017 | -71.00310 | 22 ft | 15 kts | 109° |
| 2026-05-08 00:00 | 42.35983 | -71.00177 | 22 ft | 15 kts | 109° |
| 2026-05-08 00:00 | 42.35952 | -71.00047 | 22 ft | 14 kts | 100° |
| 2026-05-08 00:01 | 42.35963 | -70.99911 | 23 ft | 15 kts | 76° |
| 2026-05-08 00:01 | 42.35989 | -70.99767 | 21 ft | 16 kts | 76° |
| 2026-05-08 00:01 | 42.36015 | -70.99618 | 32 ft | 17 kts | 77° |
| 2026-05-08 00:01 | 42.36041 | -70.99469 | 21 ft | 16 kts | 76° |
| 2026-05-08 00:02 | 42.36065 | -70.99330 | 23 ft | 15 kts | 76° |
| 2026-05-08 00:02 | 42.36082 | -70.99214 | 21 ft | 8 kts | 99° |
| 2026-05-08 00:02 | 42.36049 | -70.99167 | 22 ft | 5 kts | 166° |
| 2026-05-08 00:02 | 42.36041 | -70.99165 | 21 ft | 0 kts | 168° |
| 2026-05-08 00:04 | 42.36024 | -70.99158 | 22 ft | 12 kts | 161° |
| 2026-05-08 00:04 | 42.35985 | -70.99015 | 21 ft | 21 kts | 76° |
| 2026-05-08 00:04 | 42.36009 | -70.98917 | 22 ft | 6 kts | 197° |
| 2026-05-08 00:04 | 42.35966 | -70.99100 | 21 ft | 51 kts | 256° |
| 2026-05-08 00:05 | 42.35827 | -70.99945 | 53 ft | 127 kts | 259° |
| 2026-05-08 00:05 | 42.35610 | -71.01226 | 687 ft | 152 kts | 259° |
| 2026-05-08 00:05 | 42.35337 | -71.02632 | 1717 ft | 149 kts | 256° |
| 2026-05-08 00:05 | 42.34880 | -71.03861 | 2795 ft | 153 kts | 236° |
| 2026-05-08 00:06 | 42.34079 | -71.04942 | 3537 ft | 170 kts | 227° |
| 2026-05-08 00:06 | 42.33176 | -71.06075 | 4421 ft | 185 kts | 227° |
| 2026-05-08 00:06 | 42.32164 | -71.07287 | 5355 ft | 203 kts | 224° |
| 2026-05-08 00:06 | 42.31077 | -71.08512 | 6573 ft | 203 kts | 224° |
| 2026-05-08 00:07 | 42.29976 | -71.09835 | 7386 ft | 224 kts | 224° |
| 2026-05-08 00:07 | 42.28504 | -71.10894 | 8023 ft | 257 kts | 203° |
| 2026-05-08 00:07 | 42.26677 | -71.11278 | 9016 ft | 272 kts | 184° |
| 2026-05-08 00:07 | 42.24794 | -71.10831 | 9913 ft | 294 kts | 164° |
| 2026-05-08 00:08 | 42.22941 | -71.09518 | 10825 ft | 303 kts | 156° |
| 2026-05-08 00:08 | 42.21082 | -71.08174 | 11903 ft | 304 kts | 159° |
| 2026-05-08 00:08 | 42.19194 | -71.06838 | 12939 ft | 308 kts | 160° |
| 2026-05-08 00:08 | 42.17294 | -71.05473 | 13931 ft | 312 kts | 161° |
| 2026-05-08 00:09 | 42.15380 | -71.04077 | 14906 ft | 315 kts | 160° |
| 2026-05-08 00:09 | 42.13535 | -71.02383 | 15857 ft | 322 kts | 155° |
| 2026-05-08 00:09 | 42.11698 | -71.00654 | 16846 ft | 322 kts | 157° |
| 2026-05-08 00:09 | 42.09848 | -70.98945 | 17813 ft | 324 kts | 158° |
| 2026-05-08 00:10 | 42.07984 | -70.97212 | 18649 ft | 327 kts | 158° |
| 2026-05-08 00:10 | 42.06105 | -70.95453 | 19399 ft | 331 kts | 158° |
| 2026-05-08 00:10 | 42.04200 | -70.93676 | 20125 ft | 336 kts | 158° |
| 2026-05-08 00:10 | 42.02269 | -70.91876 | 20851 ft | 340 kts | 158° |
| 2026-05-08 00:11 | 42.00311 | -70.90053 | 21525 ft | 345 kts | 158° |
| 2026-05-08 00:11 | 41.98325 | -70.88206 | 22197 ft | 349 kts | 158° |
| 2026-05-08 00:11 | 41.96339 | -70.86359 | 22817 ft | 354 kts | 157° |
| 2026-05-08 00:11 | 41.94302 | -70.84466 | 23463 ft | 358 kts | 157° |
| 2026-05-08 00:12 | 41.92259 | -70.82562 | 24291 ft | 348 kts | 158° |
| 2026-05-08 00:12 | 41.90275 | -70.80941 | 25386 ft | 325 kts | 167° |
| 2026-05-08 00:12 | 41.88207 | -70.79773 | 25900 ft | 320 kts | 174° |
| 2026-05-08 00:12 | 41.86083 | -70.78997 | 26514 ft | 312 kts | 181° |
| 2026-05-08 00:13 | 41.83960 | -70.78611 | 27092 ft | 305 kts | 188° |
| 2026-05-08 00:13 | 41.81859 | -70.78590 | 27658 ft | 299 kts | 195° |
| 2026-05-08 00:13 | 41.79811 | -70.78915 | 28208 ft | 294 kts | 201° |
| 2026-05-08 00:13 | 41.77842 | -70.79565 | 28766 ft | 287 kts | 207° |
| 2026-05-08 00:14 | 41.76012 | -70.80489 | 29344 ft | 284 kts | 212° |
| 2026-05-08 00:14 | 41.74270 | -70.81699 | 29896 ft | 280 kts | 217° |
| 2026-05-08 00:14 | 41.72605 | -70.82949 | 30828 ft | 262 kts | 216° |
| 2026-05-08 00:14 | 41.71017 | -70.84124 | 31263 ft | 267 kts | 217° |
| 2026-05-08 00:15 | 41.69365 | -70.85382 | 31464 ft | 276 kts | 217° |
| 2026-05-08 00:15 | 41.67696 | -70.86631 | 31998 ft | 274 kts | 217° |
| 2026-05-08 00:15 | 41.66034 | -70.87870 | 32513 ft | 273 kts | 217° |
| 2026-05-08 00:15 | 41.64375 | -70.89112 | 32958 ft | 276 kts | 218° |
| 2026-05-08 00:16 | 41.62690 | -70.90376 | 33373 ft | 276 kts | 218° |
| 2026-05-08 00:16 | 41.61057 | -70.91581 | 34193 ft | 263 kts | 218° |
| 2026-05-08 00:16 | 41.59465 | -70.92775 | 34622 ft | 262 kts | 219° |
| 2026-05-08 00:16 | 41.57875 | -70.93971 | 35051 ft | 261 kts | 219° |
| 2026-05-08 00:17 | 41.56326 | -70.95159 | 35450 ft | 257 kts | 222° |
| 2026-05-08 00:17 | 41.54945 | -70.96611 | 35843 ft | 251 kts | 229° |
| 2026-05-08 00:17 | 41.53733 | -70.98303 | 36256 ft | 247 kts | 235° |
| 2026-05-08 00:17 | 41.52749 | -71.00123 | 36650 ft | 244 kts | 239° |
| 2026-05-08 00:18 | 41.51817 | -71.02012 | 37037 ft | 243 kts | 239° |
| 2026-05-08 00:18 | 41.50871 | -71.03888 | 37427 ft | 243 kts | 239° |
| 2026-05-08 00:18 | 41.49933 | -71.05757 | 37824 ft | 242 kts | 239° |
| 2026-05-08 00:18 | 41.49000 | -71.07623 | 38219 ft | 241 kts | 239° |
| 2026-05-08 00:19 | 41.48069 | -71.09482 | 38585 ft | 241 kts | 239° |
| 2026-05-08 00:19 | 41.47139 | -71.11338 | 38869 ft | 241 kts | 239° |
| 2026-05-08 00:19 | 41.46207 | -71.13197 | 39122 ft | 242 kts | 239° |
| 2026-05-08 00:19 | 41.45271 | -71.15060 | 39366 ft | 243 kts | 239° |
| 2026-05-08 00:20 | 41.44329 | -71.16937 | 39603 ft | 243 kts | 240° |
| 2026-05-08 00:20 | 41.43387 | -71.18812 | 39820 ft | 246 kts | 240° |
| 2026-05-08 00:20 | 41.42418 | -71.20743 | 39814 ft | 253 kts | 240° |
| 2026-05-08 00:20 | 41.41438 | -71.22689 | 39826 ft | 256 kts | 239° |
| 2026-05-08 00:21 | 41.40429 | -71.24694 | 39828 ft | 265 kts | 239° |
| 2026-05-08 00:21 | 41.39386 | -71.26766 | 39831 ft | 273 kts | 239° |
| 2026-05-08 00:21 | 41.38314 | -71.28893 | 39838 ft | 281 kts | 239° |
| 2026-05-08 00:21 | 41.37208 | -71.31083 | 39847 ft | 288 kts | 239° |
| 2026-05-08 00:22 | 41.36076 | -71.33326 | 39845 ft | 295 kts | 239° |
| 2026-05-08 00:22 | 41.34920 | -71.35618 | 39846 ft | 301 kts | 239° |
| 2026-05-08 00:22 | 41.32536 | -71.40332 | 39853 ft | 312 kts | 239° |
| 2026-05-08 00:23 | 41.30096 | -71.45158 | 39850 ft | 321 kts | 239° |
| 2026-05-08 00:23 | 41.27569 | -71.50148 | 39860 ft | 328 kts | 239° |
| 2026-05-08 00:24 | 41.25014 | -71.55178 | 39859 ft | 327 kts | 239° |
| 2026-05-08 00:24 | 41.22469 | -71.60183 | 39856 ft | 326 kts | 239° |
| 2026-05-08 00:25 | 41.19944 | -71.65146 | 39853 ft | 323 kts | 239° |
| 2026-05-08 00:25 | 41.17424 | -71.70087 | 39853 ft | 323 kts | 239° |
| 2026-05-08 00:26 | 41.14893 | -71.75046 | 39855 ft | 325 kts | 239° |
| 2026-05-08 00:26 | 41.12367 | -71.80006 | 39874 ft | 324 kts | 239° |
| 2026-05-08 00:27 | 41.09846 | -71.84973 | 39874 ft | 324 kts | 239° |
| 2026-05-08 00:27 | 41.07325 | -71.89916 | 39874 ft | 324 kts | 239° |
| 2026-05-08 00:28 | 41.04813 | -71.94844 | 39885 ft | 325 kts | 239° |
| 2026-05-08 00:28 | 41.02569 | -71.99991 | 39885 ft | 322 kts | 246° |
| 2026-05-08 00:29 | 41.00685 | -72.05376 | 39889 ft | 322 kts | 246° |
| 2026-05-08 00:29 | 40.98787 | -72.10743 | 39873 ft | 321 kts | 246° |
| 2026-05-08 00:30 | 40.96897 | -72.16102 | 39867 ft | 321 kts | 246° |
| 2026-05-08 00:30 | 40.95002 | -72.21456 | 39862 ft | 321 kts | 246° |
| 2026-05-08 00:31 | 40.93106 | -72.26799 | 39878 ft | 321 kts | 246° |
| 2026-05-08 00:31 | 40.90856 | -72.31927 | 39875 ft | 328 kts | 236° |
| 2026-05-08 00:32 | 40.87632 | -72.36313 | 39881 ft | 335 kts | 231° |
| 2026-05-08 00:32 | 40.84327 | -72.40649 | 39877 ft | 334 kts | 231° |
| 2026-05-08 00:33 | 40.81052 | -72.44914 | 39870 ft | 331 kts | 231° |
| 2026-05-08 00:33 | 40.77572 | -72.48896 | 39539 ft | 330 kts | 226° |
| 2026-05-08 00:34 | 40.75818 | -72.50797 | 39192 ft | 323 kts | 227° |
| 2026-05-08 00:34 | 40.74101 | -72.52667 | 38827 ft | 317 kts | 226° |
| 2026-05-08 00:34 | 40.72413 | -72.54499 | 38427 ft | 312 kts | 226° |
| 2026-05-08 00:34 | 40.70745 | -72.56304 | 37957 ft | 308 kts | 226° |
| 2026-05-08 00:35 | 40.69098 | -72.58088 | 37509 ft | 306 kts | 227° |
| 2026-05-08 00:35 | 40.68032 | -72.59309 | 37215 ft | 307 kts | 229° |
| 2026-05-08 00:35 | 40.66420 | -72.61184 | 36852 ft | 311 kts | 228° |
| 2026-05-08 00:35 | 40.64781 | -72.63061 | 36513 ft | 313 kts | 228° |
| 2026-05-08 00:36 | 40.63131 | -72.64951 | 36222 ft | 316 kts | 229° |
| 2026-05-08 00:36 | 40.61472 | -72.66859 | 35949 ft | 318 kts | 229° |
| 2026-05-08 00:36 | 40.58090 | -72.70751 | 35875 ft | 329 kts | 228° |
| 2026-05-08 00:37 | 40.54576 | -72.74775 | 35888 ft | 339 kts | 228° |
| 2026-05-08 00:38 | 40.49221 | -72.80901 | 35883 ft | 338 kts | 228° |
| 2026-05-08 00:38 | 40.45684 | -72.84944 | 35867 ft | 336 kts | 228° |
| 2026-05-08 00:39 | 40.42140 | -72.88988 | 35868 ft | 338 kts | 228° |
| 2026-05-08 00:39 | 40.38582 | -72.93041 | 35872 ft | 339 kts | 228° |
| 2026-05-08 00:40 | 40.35034 | -72.97076 | 35879 ft | 341 kts | 228° |
| 2026-05-08 00:40 | 40.31445 | -73.01155 | 35885 ft | 341 kts | 228° |
| 2026-05-08 00:41 | 40.27857 | -73.05220 | 35869 ft | 341 kts | 228° |
| 2026-05-08 00:41 | 40.24254 | -73.09306 | 35879 ft | 344 kts | 228° |
| 2026-05-08 00:42 | 40.20634 | -73.13395 | 35876 ft | 343 kts | 228° |
| 2026-05-08 00:42 | 40.17055 | -73.17439 | 35888 ft | 341 kts | 228° |
| 2026-05-08 00:43 | 40.13460 | -73.21492 | 35879 ft | 341 kts | 228° |
| 2026-05-08 00:43 | 40.09886 | -73.25541 | 35884 ft | 341 kts | 228° |
| 2026-05-08 00:44 | 40.06252 | -73.29593 | 35890 ft | 345 kts | 228° |
| 2026-05-08 00:44 | 40.02609 | -73.33681 | 35900 ft | 345 kts | 228° |
| 2026-05-08 00:45 | 39.98966 | -73.37755 | 35898 ft | 345 kts | 228° |
| 2026-05-08 00:45 | 39.95330 | -73.41821 | 35898 ft | 344 kts | 228° |
| 2026-05-08 00:46 | 39.91719 | -73.45846 | 35889 ft | 343 kts | 228° |
| 2026-05-08 00:46 | 39.88076 | -73.49911 | 35893 ft | 347 kts | 228° |
| 2026-05-08 00:47 | 39.84396 | -73.54003 | 35909 ft | 347 kts | 226° |
| 2026-05-08 00:47 | 39.82612 | -73.55972 | 35898 ft | 325 kts | 228° |
| 2026-05-08 00:47 | 39.80933 | -73.57844 | 35882 ft | 316 kts | 229° |
| 2026-05-08 00:48 | 39.77523 | -73.61670 | 35901 ft | 331 kts | 228° |
| 2026-05-08 00:48 | 39.73954 | -73.65623 | 35894 ft | 342 kts | 228° |
| 2026-05-08 00:49 | 39.70289 | -73.69692 | 35900 ft | 348 kts | 228° |
| 2026-05-08 00:49 | 39.66619 | -73.73751 | 35901 ft | 345 kts | 228° |
| 2026-05-08 00:50 | 39.62983 | -73.77777 | 35898 ft | 342 kts | 228° |
| 2026-05-08 00:50 | 39.59358 | -73.81784 | 35899 ft | 343 kts | 229° |
| 2026-05-08 00:51 | 39.55740 | -73.85774 | 35902 ft | 344 kts | 228° |
| 2026-05-08 00:51 | 39.52086 | -73.89799 | 35906 ft | 345 kts | 228° |
| 2026-05-08 00:52 | 39.48416 | -73.93837 | 35908 ft | 346 kts | 228° |
| 2026-05-08 00:52 | 39.44739 | -73.97875 | 35905 ft | 347 kts | 228° |
| 2026-05-08 00:53 | 39.41052 | -74.01919 | 35900 ft | 347 kts | 229° |
| 2026-05-08 00:53 | 39.37389 | -74.05924 | 35899 ft | 342 kts | 228° |
| 2026-05-08 00:54 | 39.33753 | -74.09903 | 35887 ft | 345 kts | 228° |
| 2026-05-08 00:54 | 39.30061 | -74.13928 | 35897 ft | 348 kts | 228° |
| 2026-05-08 00:55 | 39.26368 | -74.17951 | 35898 ft | 347 kts | 228° |
| 2026-05-08 00:55 | 39.22738 | -74.21891 | 35888 ft | 335 kts | 228° |
| 2026-05-08 00:56 | 39.19251 | -74.25683 | 35882 ft | 324 kts | 229° |
| 2026-05-08 00:56 | 39.15798 | -74.29438 | 35888 ft | 328 kts | 229° |
| 2026-05-08 00:57 | 39.12275 | -74.33254 | 35874 ft | 333 kts | 228° |
| 2026-05-08 00:57 | 39.10495 | -74.35180 | 35627 ft | 335 kts | 228° |
| 2026-05-08 00:57 | 39.08715 | -74.37100 | 35419 ft | 333 kts | 229° |
| 2026-05-08 00:57 | 39.06949 | -74.39008 | 35176 ft | 330 kts | 229° |
| 2026-05-08 00:58 | 39.05198 | -74.40900 | 34941 ft | 328 kts | 229° |
| 2026-05-08 00:58 | 39.03451 | -74.42789 | 34707 ft | 327 kts | 229° |
| 2026-05-08 00:58 | 39.01702 | -74.44675 | 34479 ft | 328 kts | 229° |
| 2026-05-08 00:58 | 38.99954 | -74.46560 | 34252 ft | 330 kts | 229° |
| 2026-05-08 00:59 | 38.98192 | -74.48459 | 33999 ft | 331 kts | 229° |
| 2026-05-08 00:59 | 38.96426 | -74.50360 | 33754 ft | 331 kts | 229° |
| 2026-05-08 00:59 | 38.94910 | -74.52490 | 33551 ft | 319 kts | 240° |
| 2026-05-08 00:59 | 38.93819 | -74.54933 | 33377 ft | 314 kts | 250° |
| 2026-05-08 01:00 | 38.93150 | -74.57587 | 33192 ft | 312 kts | 257° |
| 2026-05-08 01:00 | 38.92638 | -74.60301 | 32934 ft | 316 kts | 257° |
| 2026-05-08 01:00 | 38.92100 | -74.63050 | 32513 ft | 319 kts | 257° |
| 2026-05-08 01:00 | 38.91557 | -74.65810 | 32099 ft | 317 kts | 257° |
| 2026-05-08 01:01 | 38.91022 | -74.68552 | 31679 ft | 315 kts | 257° |
| 2026-05-08 01:01 | 38.90494 | -74.71270 | 31265 ft | 314 kts | 257° |
| 2026-05-08 01:01 | 38.89961 | -74.73994 | 30850 ft | 315 kts | 257° |
| 2026-05-08 01:01 | 38.89434 | -74.76688 | 30440 ft | 316 kts | 257° |
| 2026-05-08 01:02 | 38.88914 | -74.79434 | 30021 ft | 317 kts | 258° |
| 2026-05-08 01:02 | 38.88405 | -74.82188 | 29569 ft | 318 kts | 258° |
| 2026-05-08 01:02 | 38.87885 | -74.84953 | 29150 ft | 319 kts | 257° |
| 2026-05-08 01:02 | 38.87356 | -74.87733 | 28724 ft | 322 kts | 257° |
| 2026-05-08 01:03 | 38.86822 | -74.90546 | 28296 ft | 326 kts | 257° |
| 2026-05-08 01:03 | 38.86286 | -74.93380 | 27864 ft | 328 kts | 257° |
| 2026-05-08 01:03 | 38.85743 | -74.96236 | 27433 ft | 331 kts | 257° |
| 2026-05-08 01:03 | 38.85196 | -74.99115 | 26988 ft | 334 kts | 257° |
| 2026-05-08 01:04 | 38.84642 | -75.02016 | 26557 ft | 336 kts | 257° |
| 2026-05-08 01:04 | 38.84090 | -75.04917 | 26207 ft | 332 kts | 257° |
| 2026-05-08 01:04 | 38.83542 | -75.07776 | 25934 ft | 330 kts | 257° |
| 2026-05-08 01:04 | 38.83003 | -75.10598 | 25749 ft | 329 kts | 257° |
| 2026-05-08 01:05 | 38.82449 | -75.13492 | 25511 ft | 331 kts | 257° |
| 2026-05-08 01:05 | 38.81897 | -75.16362 | 25275 ft | 332 kts | 257° |
| 2026-05-08 01:05 | 38.81347 | -75.19231 | 25038 ft | 330 kts | 257° |
| 2026-05-08 01:05 | 38.80930 | -75.22072 | 24803 ft | 328 kts | 263° |
| 2026-05-08 01:06 | 38.80753 | -75.24988 | 24570 ft | 327 kts | 264° |
| 2026-05-08 01:06 | 38.80570 | -75.27894 | 24335 ft | 327 kts | 264° |
| 2026-05-08 01:06 | 38.80383 | -75.30800 | 24111 ft | 326 kts | 264° |
| 2026-05-08 01:06 | 38.80204 | -75.33700 | 23885 ft | 326 kts | 264° |
| 2026-05-08 01:07 | 38.80026 | -75.36596 | 23659 ft | 326 kts | 264° |
| 2026-05-08 01:07 | 38.79845 | -75.39484 | 23427 ft | 325 kts | 264° |
| 2026-05-08 01:07 | 38.79661 | -75.42372 | 23155 ft | 325 kts | 264° |
| 2026-05-08 01:07 | 38.79481 | -75.45255 | 22879 ft | 324 kts | 264° |
| 2026-05-08 01:08 | 38.79298 | -75.48121 | 22556 ft | 321 kts | 264° |
| 2026-05-08 01:08 | 38.79117 | -75.50960 | 22237 ft | 319 kts | 264° |
| 2026-05-08 01:08 | 38.78938 | -75.53782 | 21922 ft | 317 kts | 264° |
| 2026-05-08 01:08 | 38.78758 | -75.56594 | 21610 ft | 316 kts | 264° |
| 2026-05-08 01:09 | 38.78577 | -75.59402 | 21303 ft | 316 kts | 264° |
| 2026-05-08 01:09 | 38.78395 | -75.62218 | 20998 ft | 317 kts | 264° |
| 2026-05-08 01:09 | 38.78212 | -75.65031 | 20701 ft | 317 kts | 264° |
| 2026-05-08 01:09 | 38.78031 | -75.67845 | 20370 ft | 316 kts | 264° |
| 2026-05-08 01:10 | 38.77847 | -75.70642 | 20027 ft | 314 kts | 264° |
| 2026-05-08 01:10 | 38.77666 | -75.73424 | 19687 ft | 312 kts | 264° |
| 2026-05-08 01:10 | 38.77483 | -75.76190 | 19347 ft | 311 kts | 263° |
| 2026-05-08 01:10 | 38.77302 | -75.78939 | 19039 ft | 310 kts | 263° |
| 2026-05-08 01:11 | 38.77122 | -75.81655 | 18715 ft | 309 kts | 263° |
| 2026-05-08 01:11 | 38.76937 | -75.84431 | 18385 ft | 308 kts | 263° |
| 2026-05-08 01:11 | 38.76754 | -75.87170 | 18040 ft | 308 kts | 263° |
| 2026-05-08 01:11 | 38.76572 | -75.89908 | 17550 ft | 309 kts | 263° |
| 2026-05-08 01:12 | 38.76391 | -75.92593 | 17033 ft | 305 kts | 263° |
| 2026-05-08 01:12 | 38.76210 | -75.95276 | 16502 ft | 301 kts | 263° |
| 2026-05-08 01:12 | 38.76031 | -75.97942 | 15943 ft | 299 kts | 263° |
| 2026-05-08 01:12 | 38.75851 | -76.00579 | 15364 ft | 297 kts | 263° |
| 2026-05-08 01:13 | 38.75674 | -76.03201 | 14752 ft | 292 kts | 263° |
| 2026-05-08 01:13 | 38.75504 | -76.05782 | 14153 ft | 289 kts | 264° |
| 2026-05-08 01:13 | 38.75601 | -76.08355 | 13543 ft | 290 kts | 272° |
| 2026-05-08 01:13 | 38.75857 | -76.10905 | 12885 ft | 288 kts | 273° |
| 2026-05-08 01:14 | 38.76093 | -76.13437 | 12240 ft | 286 kts | 272° |
| 2026-05-08 01:14 | 38.76314 | -76.15967 | 11613 ft | 283 kts | 274° |
| 2026-05-08 01:14 | 38.76553 | -76.18396 | 11202 ft | 263 kts | 274° |
| 2026-05-08 01:14 | 38.76769 | -76.20642 | 10970 ft | 246 kts | 274° |
| 2026-05-08 01:15 | 38.76967 | -76.22796 | 10713 ft | 242 kts | 274° |
| 2026-05-08 01:15 | 38.77162 | -76.24936 | 10466 ft | 243 kts | 274° |
| 2026-05-08 01:15 | 38.77363 | -76.27091 | 10227 ft | 244 kts | 274° |
| 2026-05-08 01:15 | 38.77564 | -76.29254 | 10012 ft | 244 kts | 275° |
| 2026-05-08 01:16 | 38.77762 | -76.31363 | 9988 ft | 240 kts | 275° |
| 2026-05-08 01:16 | 38.77961 | -76.33509 | 9990 ft | 244 kts | 274° |
| 2026-05-08 01:16 | 38.78158 | -76.35671 | 9993 ft | 245 kts | 275° |
| 2026-05-08 01:16 | 38.78361 | -76.37864 | 9995 ft | 257 kts | 275° |
| 2026-05-08 01:17 | 38.78576 | -76.40229 | 9995 ft | 273 kts | 275° |
| 2026-05-08 01:17 | 38.78800 | -76.42659 | 9991 ft | 277 kts | 275° |
| 2026-05-08 01:17 | 38.79028 | -76.45125 | 9994 ft | 279 kts | 275° |
| 2026-05-08 01:17 | 38.79253 | -76.47593 | 9994 ft | 280 kts | 275° |
| 2026-05-08 01:18 | 38.79478 | -76.50069 | 9993 ft | 280 kts | 275° |
| 2026-05-08 01:18 | 38.79704 | -76.52549 | 9988 ft | 280 kts | 275° |
| 2026-05-08 01:18 | 38.79837 | -76.55035 | 9978 ft | 280 kts | 271° |
| 2026-05-08 01:18 | 38.79905 | -76.57529 | 9979 ft | 279 kts | 271° |
| 2026-05-08 01:19 | 38.80003 | -76.60002 | 9978 ft | 278 kts | 272° |
| 2026-05-08 01:19 | 38.80091 | -76.62476 | 9978 ft | 278 kts | 271° |
| 2026-05-08 01:19 | 38.80170 | -76.64957 | 9979 ft | 279 kts | 271° |
| 2026-05-08 01:19 | 38.80252 | -76.67442 | 9978 ft | 279 kts | 271° |
| 2026-05-08 01:20 | 38.80334 | -76.69936 | 9978 ft | 279 kts | 271° |
| 2026-05-08 01:20 | 38.80417 | -76.72412 | 9978 ft | 272 kts | 271° |
| 2026-05-08 01:20 | 38.80495 | -76.74736 | 9970 ft | 252 kts | 271° |
| 2026-05-08 01:20 | 38.80682 | -76.76913 | 9974 ft | 245 kts | 281° |
| 2026-05-08 01:21 | 38.81273 | -76.78941 | 9968 ft | 249 kts | 292° |
| 2026-05-08 01:21 | 38.82245 | -76.80802 | 9977 ft | 254 kts | 303° |
| 2026-05-08 01:21 | 38.83358 | -76.82563 | 9993 ft | 253 kts | 303° |
| 2026-05-08 01:21 | 38.84458 | -76.84338 | 9994 ft | 255 kts | 303° |
| 2026-05-08 01:22 | 38.85566 | -76.86120 | 9989 ft | 256 kts | 303° |
| 2026-05-08 01:22 | 38.86679 | -76.87911 | 9988 ft | 256 kts | 304° |
| 2026-05-08 01:22 | 38.87787 | -76.89681 | 10001 ft | 255 kts | 306° |
| 2026-05-08 01:22 | 38.89050 | -76.91299 | 10000 ft | 258 kts | 311° |
| 2026-05-08 01:23 | 38.90324 | -76.92924 | 10002 ft | 258 kts | 310° |
| 2026-05-08 01:23 | 38.91595 | -76.94570 | 9947 ft | 261 kts | 310° |
| 2026-05-08 01:23 | 38.92889 | -76.96223 | 9579 ft | 262 kts | 311° |
| 2026-05-08 01:23 | 38.94167 | -76.97851 | 9243 ft | 256 kts | 311° |
| 2026-05-08 01:24 | 38.95424 | -76.99460 | 8921 ft | 254 kts | 311° |
| 2026-05-08 01:24 | 38.96673 | -77.01062 | 8598 ft | 254 kts | 312° |
| 2026-05-08 01:24 | 38.97934 | -77.02674 | 8137 ft | 257 kts | 313° |
| 2026-05-08 01:24 | 38.99202 | -77.04297 | 7662 ft | 257 kts | 313° |
| 2026-05-08 01:25 | 39.00440 | -77.05889 | 7248 ft | 253 kts | 314° |
| 2026-05-08 01:25 | 39.01699 | -77.07503 | 6838 ft | 251 kts | 314° |
| 2026-05-08 01:25 | 39.02920 | -77.09072 | 6399 ft | 252 kts | 315° |
| 2026-05-08 01:25 | 39.04186 | -77.10694 | 5912 ft | 254 kts | 316° |
| 2026-05-08 01:26 | 39.05436 | -77.12263 | 5455 ft | 252 kts | 316° |
| 2026-05-08 01:26 | 39.06582 | -77.13857 | 4976 ft | 236 kts | 302° |
| 2026-05-08 01:26 | 39.06883 | -77.15872 | 4501 ft | 233 kts | 263° |
| 2026-05-08 01:26 | 39.06093 | -77.17628 | 4196 ft | 231 kts | 222° |
| 2026-05-08 01:27 | 39.04607 | -77.18324 | 3976 ft | 237 kts | 183° |
| 2026-05-08 01:27 | 39.02943 | -77.18063 | 3788 ft | 239 kts | 171° |
| 2026-05-08 01:27 | 39.01345 | -77.17658 | 3592 ft | 227 kts | 170° |
| 2026-05-08 01:27 | 38.99862 | -77.17252 | 3378 ft | 209 kts | 169° |
| 2026-05-08 01:28 | 38.98489 | -77.16858 | 3181 ft | 197 kts | 169° |
| 2026-05-08 01:28 | 38.97176 | -77.16475 | 2990 ft | 189 kts | 169° |
| 2026-05-08 01:28 | 38.96380 | -77.16087 | 2970 ft | 187 kts | 147° |
| 2026-05-08 01:28 | 38.95527 | -77.14769 | 2744 ft | 195 kts | 128° |
| 2026-05-08 01:29 | 38.94644 | -77.13506 | 2473 ft | 186 kts | 137° |
| 2026-05-08 01:29 | 38.93703 | -77.12416 | 2258 ft | 179 kts | 142° |
| 2026-05-08 01:29 | 38.92770 | -77.11416 | 2099 ft | 170 kts | 146° |
| 2026-05-08 01:29 | 38.91781 | -77.10537 | 2013 ft | 169 kts | 147° |
| 2026-05-08 01:30 | 38.91070 | -77.09446 | 1882 ft | 157 kts | 121° |
| 2026-05-08 01:30 | 38.90624 | -77.08166 | 1632 ft | 156 kts | 121° |
| 2026-05-08 01:30 | 38.90052 | -77.06991 | 1343 ft | 151 kts | 133° |
| 2026-05-08 01:30 | 38.89430 | -77.06104 | 1119 ft | 121 kts | 140° |
| 2026-05-08 01:31 | 38.88847 | -77.05394 | 872 ft | 113 kts | 145° |
| 2026-05-08 01:31 | 38.88255 | -77.04738 | 661 ft | 111 kts | 145° |
| 2026-05-08 01:31 | 38.87616 | -77.04232 | 458 ft | 106 kts | 161° |
| 2026-05-08 01:31 | 38.86919 | -77.03978 | 248 ft | 101 kts | 171° |
| 2026-05-08 01:32 | 38.86227 | -77.03882 | 74 ft | 100 kts | 176° |
| 2026-05-08 01:32 | 38.85583 | -77.03821 | 21 ft | 80 kts | 175° |
| 2026-05-08 01:32 | 38.85140 | -77.03771 | 20 ft | 47 kts | 175° |
| 2026-05-08 01:32 | 38.84940 | -77.03762 | 19 ft | 21 kts | 193° |
| 2026-05-08 01:33 | 38.84886 | -77.03814 | 19 ft | 2 kts | 249° |
| 2026-05-08 01:33 | 38.84880 | -77.03854 | 19 ft | 5 kts | 264° |
| 2026-05-08 01:33 | 38.84880 | -77.03855 | 19 ft | 0 kts | 264° |
| 2026-05-08 01:34 | 38.84877 | -77.03869 | 19 ft | 8 kts | 249° |
| 2026-05-08 01:34 | 38.84840 | -77.03895 | 20 ft | 8 kts | 161° |
| 2026-05-08 01:34 | 38.84759 | -77.03891 | 20 ft | 11 kts | 204° |
| 2026-05-08 01:35 | 38.84743 | -77.03966 | 20 ft | 9 kts | 236° |
| 2026-05-08 01:35 | 38.84683 | -77.04008 | 20 ft | 14 kts | 206° |
| 2026-05-08 01:35 | 38.84597 | -77.04091 | 20 ft | 16 kts | 245° |
| 2026-05-08 01:35 | 38.84571 | -77.04230 | 20 ft | 16 kts | 259° |
| 2026-05-08 01:36 | 38.84568 | -77.04325 | 20 ft | 10 kts | 294° |
| 2026-05-08 01:36 | 38.84633 | -77.04402 | 20 ft | 16 kts | 319° |
| 2026-05-08 01:36 | 38.84617 | -77.04502 | 20 ft | 12 kts | 229° |
| 2026-05-08 01:36 | 38.84565 | -77.04565 | 20 ft | 7 kts | 161° |
| 2026-05-08 01:37 | 38.84526 | -77.04526 | 20 ft | 6 kts | 141° |
| 2026-05-08 01:37 | 38.84519 | -77.04519 | 20 ft | 0 kts | 141° |